sensor_id;sensor_type;location;lat;lon;timestamp;temperature;humidity
13976;DHT22;7062;49.792;9.946;2023-03-03T00:00:41;6.20;90.60
13976;DHT22;7062;49.792;9.946;2023-03-03T00:03:08;6.20;90.40
13976;DHT22;7062;49.792;9.946;2023-03-03T00:05:35;6.30;90.40
13976;DHT22;7062;49.792;9.946;2023-03-03T00:08:02;6.30;90.40
13976;DHT22;7062;49.792;9.946;2023-03-03T00:10:29;6.20;90.40
13976;DHT22;7062;49.792;9.946;2023-03-03T00:12:54;6.30;90.40
13976;DHT22;7062;49.792;9.946;2023-03-03T00:15:23;6.20;90.40
13976;DHT22;7062;49.792;9.946;2023-03-03T00:17:49;6.10;90.50
13976;DHT22;7062;49.792;9.946;2023-03-03T00:23:15;6.10;90.80
13976;DHT22;7062;49.792;9.946;2023-03-03T00:25:43;5.90;91.00
13976;DHT22;7062;49.792;9.946;2023-03-03T00:30:44;6.00;91.30
13976;DHT22;7062;49.792;9.946;2023-03-03T00:33:29;6.00;91.30
13976;DHT22;7062;49.792;9.946;2023-03-03T00:38:34;6.00;91.60
13976;DHT22;7062;49.792;9.946;2023-03-03T00:41:01;5.50;92.80
13976;DHT22;7062;49.792;9.946;2023-03-03T00:43:34;5.50;92.80
13976;DHT22;7062;49.792;9.946;2023-03-03T00:46:00;5.50;92.80
13976;DHT22;7062;49.792;9.946;2023-03-03T00:48:28;5.50;93.10
13976;DHT22;7062;49.792;9.946;2023-03-03T00:50:59;5.40;93.60
13976;DHT22;7062;49.792;9.946;2023-03-03T00:53:27;5.10;94.10
13976;DHT22;7062;49.792;9.946;2023-03-03T00:55:54;4.90;94.50
13976;DHT22;7062;49.792;9.946;2023-03-03T00:58:21;5.00;94.70
13976;DHT22;7062;49.792;9.946;2023-03-03T01:00:49;5.10;94.60
13976;DHT22;7062;49.792;9.946;2023-03-03T01:03:18;5.30;94.30
13976;DHT22;7062;49.792;9.946;2023-03-03T01:05:44;5.10;94.40
13976;DHT22;7062;49.792;9.946;2023-03-03T01:08:10;5.00;94.80
13976;DHT22;7062;49.792;9.946;2023-03-03T01:10:44;4.60;95.60
13976;DHT22;7062;49.792;9.946;2023-03-03T01:13:11;4.50;96.30
13976;DHT22;7062;49.792;9.946;2023-03-03T01:15:38;4.50;96.70
13976;DHT22;7062;49.792;9.946;2023-03-03T01:18:03;4.50;96.80
13976;DHT22;7062;49.792;9.946;2023-03-03T01:20:29;4.40;97.40
13976;DHT22;7062;49.792;9.946;2023-03-03T01:22:55;4.50;97.40
13976;DHT22;7062;49.792;9.946;2023-03-03T01:25:20;4.60;97.30
13976;DHT22;7062;49.792;9.946;2023-03-03T01:27:46;4.40;97.80
13976;DHT22;7062;49.792;9.946;2023-03-03T01:30:12;4.50;97.90
13976;DHT22;7062;49.792;9.946;2023-03-03T01:32:38;4.60;97.60
13976;DHT22;7062;49.792;9.946;2023-03-03T01:35:04;4.60;97.70
13976;DHT22;7062;49.792;9.946;2023-03-03T01:37:29;4.70;97.70
13976;DHT22;7062;49.792;9.946;2023-03-03T01:39:55;4.40;97.90
13976;DHT22;7062;49.792;9.946;2023-03-03T01:42:21;4.40;98.30
13976;DHT22;7062;49.792;9.946;2023-03-03T01:44:47;4.30;98.70
13976;DHT22;7062;49.792;9.946;2023-03-03T01:47:26;4.40;98.70
13976;DHT22;7062;49.792;9.946;2023-03-03T01:50:01;4.50;98.50
13976;DHT22;7062;49.792;9.946;2023-03-03T01:52:37;4.70;98.20
13976;DHT22;7062;49.792;9.946;2023-03-03T01:55:18;4.70;98.30
13976;DHT22;7062;49.792;9.946;2023-03-03T01:57:50;4.80;97.90
13976;DHT22;7062;49.792;9.946;2023-03-03T02:00:17;4.80;97.90
13976;DHT22;7062;49.792;9.946;2023-03-03T02:02:44;4.90;97.70
13976;DHT22;7062;49.792;9.946;2023-03-03T02:05:12;4.70;98.10
13976;DHT22;7062;49.792;9.946;2023-03-03T02:07:38;4.70;98.30
13976;DHT22;7062;49.792;9.946;2023-03-03T02:12:51;4.40;99.00
13976;DHT22;7062;49.792;9.946;2023-03-03T02:15:31;4.50;99.10
13976;DHT22;7062;49.792;9.946;2023-03-03T02:18:04;4.50;99.20
13976;DHT22;7062;49.792;9.946;2023-03-03T02:28:27;4.60;99.20
13976;DHT22;7062;49.792;9.946;2023-03-03T02:30:55;4.40;99.20
13976;DHT22;7062;49.792;9.946;2023-03-03T02:33:21;4.40;99.70
13976;DHT22;7062;49.792;9.946;2023-03-03T02:35:47;4.20;99.90
13976;DHT22;7062;49.792;9.946;2023-03-03T02:44:07;4.50;99.80
13976;DHT22;7062;49.792;9.946;2023-03-03T02:46:40;4.60;99.70
13976;DHT22;7062;49.792;9.946;2023-03-03T02:49:07;4.10;99.90
13976;DHT22;7062;49.792;9.946;2023-03-03T02:51:34;3.90;99.90
13976;DHT22;7062;49.792;9.946;2023-03-03T02:54:00;3.70;99.90
13976;DHT22;7062;49.792;9.946;2023-03-03T02:56:26;3.70;99.90
13976;DHT22;7062;49.792;9.946;2023-03-03T02:58:52;3.80;99.90
13976;DHT22;7062;49.792;9.946;2023-03-03T03:01:18;3.90;99.90
13976;DHT22;7062;49.792;9.946;2023-03-03T03:03:44;4.00;99.90
13976;DHT22;7062;49.792;9.946;2023-03-03T03:06:10;4.10;99.90
13976;DHT22;7062;49.792;9.946;2023-03-03T03:08:36;4.20;99.90
13976;DHT22;7062;49.792;9.946;2023-03-03T03:11:02;4.20;99.90
13976;DHT22;7062;49.792;9.946;2023-03-03T03:13:28;4.10;99.90
13976;DHT22;7062;49.792;9.946;2023-03-03T03:15:55;3.70;99.90
13976;DHT22;7062;49.792;9.946;2023-03-03T03:18:21;3.80;99.90
13976;DHT22;7062;49.792;9.946;2023-03-03T03:20:46;3.70;99.90
13976;DHT22;7062;49.792;9.946;2023-03-03T03:23:12;3.60;99.90
13976;DHT22;7062;49.792;9.946;2023-03-03T03:25:38;3.30;99.90
13976;DHT22;7062;49.792;9.946;2023-03-03T03:28:13;3.20;99.90
13976;DHT22;7062;49.792;9.946;2023-03-03T03:30:39;3.10;99.90
13976;DHT22;7062;49.792;9.946;2023-03-03T03:33:06;3.20;99.90
13976;DHT22;7062;49.792;9.946;2023-03-03T03:35:33;3.10;99.90
13976;DHT22;7062;49.792;9.946;2023-03-03T03:37:59;3.00;99.90
13976;DHT22;7062;49.792;9.946;2023-03-03T03:40:25;2.90;99.90
13976;DHT22;7062;49.792;9.946;2023-03-03T03:42:52;3.10;99.90
13976;DHT22;7062;49.792;9.946;2023-03-03T03:45:18;3.30;99.90
13976;DHT22;7062;49.792;9.946;2023-03-03T03:47:44;3.40;99.90
13976;DHT22;7062;49.792;9.946;2023-03-03T03:50:10;3.50;99.90
13976;DHT22;7062;49.792;9.946;2023-03-03T03:52:36;3.60;99.90
13976;DHT22;7062;49.792;9.946;2023-03-03T03:55:03;3.20;99.90
13976;DHT22;7062;49.792;9.946;2023-03-03T03:57:28;3.30;99.90
13976;DHT22;7062;49.792;9.946;2023-03-03T03:59:54;3.40;99.90
13976;DHT22;7062;49.792;9.946;2023-03-03T04:02:20;3.30;99.90
13976;DHT22;7062;49.792;9.946;2023-03-03T04:04:45;3.30;99.90
13976;DHT22;7062;49.792;9.946;2023-03-03T04:07:11;3.40;99.90
13976;DHT22;7062;49.792;9.946;2023-03-03T04:09:37;3.20;99.90
13976;DHT22;7062;49.792;9.946;2023-03-03T04:12:03;3.40;99.90
13976;DHT22;7062;49.792;9.946;2023-03-03T04:14:28;3.40;99.90
13976;DHT22;7062;49.792;9.946;2023-03-03T04:16:54;3.50;99.90
13976;DHT22;7062;49.792;9.946;2023-03-03T04:19:20;3.40;99.90
13976;DHT22;7062;49.792;9.946;2023-03-03T04:21:46;3.40;99.90
13976;DHT22;7062;49.792;9.946;2023-03-03T04:24:12;3.30;99.90
13976;DHT22;7062;49.792;9.946;2023-03-03T04:26:37;3.40;99.90
13976;DHT22;7062;49.792;9.946;2023-03-03T04:29:03;3.40;99.90
13976;DHT22;7062;49.792;9.946;2023-03-03T04:31:28;3.50;99.90
13976;DHT22;7062;49.792;9.946;2023-03-03T04:33:54;3.60;99.90
13976;DHT22;7062;49.792;9.946;2023-03-03T04:36:20;3.60;99.90
13976;DHT22;7062;49.792;9.946;2023-03-03T04:38:46;3.60;99.90
13976;DHT22;7062;49.792;9.946;2023-03-03T04:41:12;3.50;99.90
13976;DHT22;7062;49.792;9.946;2023-03-03T04:43:37;3.20;99.90
13976;DHT22;7062;49.792;9.946;2023-03-03T04:46:03;3.00;99.90
13976;DHT22;7062;49.792;9.946;2023-03-03T04:48:29;2.70;99.90
13976;DHT22;7062;49.792;9.946;2023-03-03T04:50:55;2.70;99.90
13976;DHT22;7062;49.792;9.946;2023-03-03T04:53:21;2.70;99.90
13976;DHT22;7062;49.792;9.946;2023-03-03T04:55:49;2.70;99.90
13976;DHT22;7062;49.792;9.946;2023-03-03T04:58:15;2.90;99.90
13976;DHT22;7062;49.792;9.946;2023-03-03T05:00:41;2.80;99.90
13976;DHT22;7062;49.792;9.946;2023-03-03T05:03:07;2.80;99.90
13976;DHT22;7062;49.792;9.946;2023-03-03T05:05:34;2.60;99.90
13976;DHT22;7062;49.792;9.946;2023-03-03T05:08:00;2.50;99.90
13976;DHT22;7062;49.792;9.946;2023-03-03T05:10:26;2.40;99.90
13976;DHT22;7062;49.792;9.946;2023-03-03T05:12:51;2.40;99.90
13976;DHT22;7062;49.792;9.946;2023-03-03T05:15:17;2.40;99.90
13976;DHT22;7062;49.792;9.946;2023-03-03T05:17:43;2.60;99.90
13976;DHT22;7062;49.792;9.946;2023-03-03T05:20:09;2.60;99.90
13976;DHT22;7062;49.792;9.946;2023-03-03T05:22:36;2.40;99.90
13976;DHT22;7062;49.792;9.946;2023-03-03T05:25:01;2.50;99.90
13976;DHT22;7062;49.792;9.946;2023-03-03T05:27:27;2.60;99.90
13976;DHT22;7062;49.792;9.946;2023-03-03T05:29:52;2.80;99.90
13976;DHT22;7062;49.792;9.946;2023-03-03T05:32:18;2.80;99.90
13976;DHT22;7062;49.792;9.946;2023-03-03T05:34:44;2.60;99.90
13976;DHT22;7062;49.792;9.946;2023-03-03T05:37:09;2.70;99.90
13976;DHT22;7062;49.792;9.946;2023-03-03T05:39:35;2.50;99.90
13976;DHT22;7062;49.792;9.946;2023-03-03T05:42:01;2.30;99.90
13976;DHT22;7062;49.792;9.946;2023-03-03T05:44:27;2.30;99.90
13976;DHT22;7062;49.792;9.946;2023-03-03T05:46:52;2.30;99.90
13976;DHT22;7062;49.792;9.946;2023-03-03T05:49:18;2.20;99.90
13976;DHT22;7062;49.792;9.946;2023-03-03T05:51:44;2.30;99.90
13976;DHT22;7062;49.792;9.946;2023-03-03T05:54:09;2.10;99.90
13976;DHT22;7062;49.792;9.946;2023-03-03T05:56:35;2.10;99.90
13976;DHT22;7062;49.792;9.946;2023-03-03T05:59:01;2.20;99.90
13976;DHT22;7062;49.792;9.946;2023-03-03T06:01:26;2.10;99.90
13976;DHT22;7062;49.792;9.946;2023-03-03T06:03:53;2.10;99.90
13976;DHT22;7062;49.792;9.946;2023-03-03T06:06:19;2.00;99.90
13976;DHT22;7062;49.792;9.946;2023-03-03T06:08:45;2.10;99.90
13976;DHT22;7062;49.792;9.946;2023-03-03T06:11:10;2.30;99.90
13976;DHT22;7062;49.792;9.946;2023-03-03T06:13:37;2.40;99.90
13976;DHT22;7062;49.792;9.946;2023-03-03T06:16:03;2.40;99.90
13976;DHT22;7062;49.792;9.946;2023-03-03T06:18:32;2.50;99.90
13976;DHT22;7062;49.792;9.946;2023-03-03T06:20:57;2.40;99.90
13976;DHT22;7062;49.792;9.946;2023-03-03T06:23:23;2.20;99.90
13976;DHT22;7062;49.792;9.946;2023-03-03T06:25:49;2.20;99.90
13976;DHT22;7062;49.792;9.946;2023-03-03T06:28:14;2.20;99.90
13976;DHT22;7062;49.792;9.946;2023-03-03T06:30:40;2.30;99.90
13976;DHT22;7062;49.792;9.946;2023-03-03T06:33:05;2.40;99.90
13976;DHT22;7062;49.792;9.946;2023-03-03T06:35:31;2.40;99.90
13976;DHT22;7062;49.792;9.946;2023-03-03T06:37:57;2.40;99.90
13976;DHT22;7062;49.792;9.946;2023-03-03T06:40:22;2.40;99.90
13976;DHT22;7062;49.792;9.946;2023-03-03T06:42:48;2.50;99.90
13976;DHT22;7062;49.792;9.946;2023-03-03T06:45:14;2.40;99.90
13976;DHT22;7062;49.792;9.946;2023-03-03T06:47:40;2.50;99.90
13976;DHT22;7062;49.792;9.946;2023-03-03T06:50:07;2.60;99.90
13976;DHT22;7062;49.792;9.946;2023-03-03T06:52:34;2.90;99.90
13976;DHT22;7062;49.792;9.946;2023-03-03T06:55:01;2.90;99.90
13976;DHT22;7062;49.792;9.946;2023-03-03T06:57:34;2.80;99.90
13976;DHT22;7062;49.792;9.946;2023-03-03T07:00:22;2.80;99.90
13976;DHT22;7062;49.792;9.946;2023-03-03T07:03:07;2.60;99.90
13976;DHT22;7062;49.792;9.946;2023-03-03T07:05:36;2.60;99.90
13976;DHT22;7062;49.792;9.946;2023-03-03T07:08:08;2.50;99.90
13976;DHT22;7062;49.792;9.946;2023-03-03T07:10:35;2.60;99.90
13976;DHT22;7062;49.792;9.946;2023-03-03T07:15:39;2.90;99.90
13976;DHT22;7062;49.792;9.946;2023-03-03T07:20:57;3.00;99.90
13976;DHT22;7062;49.792;9.946;2023-03-03T07:23:27;3.00;99.90
13976;DHT22;7062;49.792;9.946;2023-03-03T07:25:53;3.30;99.90
13976;DHT22;7062;49.792;9.946;2023-03-03T07:28:27;3.40;99.90
13976;DHT22;7062;49.792;9.946;2023-03-03T07:30:55;3.30;99.90
13976;DHT22;7062;49.792;9.946;2023-03-03T07:33:27;3.30;99.90
13976;DHT22;7062;49.792;9.946;2023-03-03T07:35:55;3.30;99.90
13976;DHT22;7062;49.792;9.946;2023-03-03T07:38:34;3.30;99.90
13976;DHT22;7062;49.792;9.946;2023-03-03T07:41:04;3.20;99.90
13976;DHT22;7062;49.792;9.946;2023-03-03T07:43:37;3.20;99.90
13976;DHT22;7062;49.792;9.946;2023-03-03T07:48:37;3.40;99.90
13976;DHT22;7062;49.792;9.946;2023-03-03T07:51:24;3.30;99.90
13976;DHT22;7062;49.792;9.946;2023-03-03T07:53:53;3.50;99.90
13976;DHT22;7062;49.792;9.946;2023-03-03T07:56:33;3.50;99.90
13976;DHT22;7062;49.792;9.946;2023-03-03T07:58:59;3.70;99.90
13976;DHT22;7062;49.792;9.946;2023-03-03T08:01:39;3.80;99.90
13976;DHT22;7062;49.792;9.946;2023-03-03T08:04:18;4.00;99.90
13976;DHT22;7062;49.792;9.946;2023-03-03T08:06:55;4.30;99.90
13976;DHT22;7062;49.792;9.946;2023-03-03T08:09:38;4.30;99.90
13976;DHT22;7062;49.792;9.946;2023-03-03T08:14:37;4.60;99.90
13976;DHT22;7062;49.792;9.946;2023-03-03T08:17:18;4.60;99.90
13976;DHT22;7062;49.792;9.946;2023-03-03T08:19:45;4.80;99.90
13976;DHT22;7062;49.792;9.946;2023-03-03T08:22:30;4.90;99.90
13976;DHT22;7062;49.792;9.946;2023-03-03T08:24:57;5.10;99.90
13976;DHT22;7062;49.792;9.946;2023-03-03T08:27:23;5.30;99.90
13976;DHT22;7062;49.792;9.946;2023-03-03T08:29:49;5.60;99.90
13976;DHT22;7062;49.792;9.946;2023-03-03T08:32:15;5.50;99.90
13976;DHT22;7062;49.792;9.946;2023-03-03T08:34:40;5.70;99.90
13976;DHT22;7062;49.792;9.946;2023-03-03T08:37:06;5.70;99.90
13976;DHT22;7062;49.792;9.946;2023-03-03T08:39:32;5.70;99.90
13976;DHT22;7062;49.792;9.946;2023-03-03T08:41:57;5.70;99.90
13976;DHT22;7062;49.792;9.946;2023-03-03T08:44:23;5.90;99.90
13976;DHT22;7062;49.792;9.946;2023-03-03T08:46:49;5.90;99.90
13976;DHT22;7062;49.792;9.946;2023-03-03T08:49:15;6.10;99.90
13976;DHT22;7062;49.792;9.946;2023-03-03T08:51:40;6.40;99.90
13976;DHT22;7062;49.792;9.946;2023-03-03T08:54:06;6.40;99.90
13976;DHT22;7062;49.792;9.946;2023-03-03T08:56:32;6.70;99.90
13976;DHT22;7062;49.792;9.946;2023-03-03T08:58:58;6.50;99.90
13976;DHT22;7062;49.792;9.946;2023-03-03T09:01:23;6.70;99.90
13976;DHT22;7062;49.792;9.946;2023-03-03T09:03:49;7.30;99.90
13976;DHT22;7062;49.792;9.946;2023-03-03T09:06:15;8.80;99.90
13976;DHT22;7062;49.792;9.946;2023-03-03T09:08:40;9.50;99.90
13976;DHT22;7062;49.792;9.946;2023-03-03T09:11:12;10.40;99.90
13976;DHT22;7062;49.792;9.946;2023-03-03T09:13:39;11.60;99.90
13976;DHT22;7062;49.792;9.946;2023-03-03T09:16:14;13.10;98.80
13976;DHT22;7062;49.792;9.946;2023-03-03T09:18:41;14.30;96.30
13976;DHT22;7062;49.792;9.946;2023-03-03T09:21:25;14.50;94.60
13976;DHT22;7062;49.792;9.946;2023-03-03T09:24:00;14.70;93.70
13976;DHT22;7062;49.792;9.946;2023-03-03T09:26:44;15.50;92.50
13976;DHT22;7062;49.792;9.946;2023-03-03T09:31:51;15.80;91.20
13976;DHT22;7062;49.792;9.946;2023-03-03T09:34:24;16.80;90.10
13976;DHT22;7062;49.792;9.946;2023-03-03T09:36:52;17.00;87.50
13976;DHT22;7062;49.792;9.946;2023-03-03T09:39:20;16.70;88.10
13976;DHT22;7062;49.792;9.946;2023-03-03T09:47:22;18.40;84.20
13976;DHT22;7062;49.792;9.946;2023-03-03T09:50:21;19.00;82.20
13976;DHT22;7062;49.792;9.946;2023-03-03T10:03:54;20.10;75.20
13976;DHT22;7062;49.792;9.946;2023-03-03T10:17:05;23.10;68.70
13976;DHT22;7062;49.792;9.946;2023-03-03T10:19:40;23.30;67.30
13976;DHT22;7062;49.792;9.946;2023-03-03T10:28:23;24.40;63.50
13976;DHT22;7062;49.792;9.946;2023-03-03T10:41:42;24.70;60.40
13976;DHT22;7062;49.792;9.946;2023-03-03T10:49:58;22.80;62.00
13976;DHT22;7062;49.792;9.946;2023-03-03T10:53:02;22.80;62.10
13976;DHT22;7062;49.792;9.946;2023-03-03T11:00:28;25.80;58.40
13976;DHT22;7062;49.792;9.946;2023-03-03T11:11:16;26.30;55.90
13976;DHT22;7062;49.792;9.946;2023-03-03T11:14:32;25.60;56.10
13976;DHT22;7062;49.792;9.946;2023-03-03T11:19:46;26.00;55.90
13976;DHT22;7062;49.792;9.946;2023-03-03T11:25:45;26.00;56.00
13976;DHT22;7062;49.792;9.946;2023-03-03T11:38:52;25.90;55.10
13976;DHT22;7062;49.792;9.946;2023-03-03T11:41:22;26.60;54.80
13976;DHT22;7062;49.792;9.946;2023-03-03T11:43:53;26.10;54.30
13976;DHT22;7062;49.792;9.946;2023-03-03T11:46:38;25.40;55.50
13976;DHT22;7062;49.792;9.946;2023-03-03T11:51:45;26.40;55.00
13976;DHT22;7062;49.792;9.946;2023-03-03T11:56:46;27.00;52.70
13976;DHT22;7062;49.792;9.946;2023-03-03T12:04:48;28.50;51.00
13976;DHT22;7062;49.792;9.946;2023-03-03T12:07:40;29.00;50.30
13976;DHT22;7062;49.792;9.946;2023-03-03T12:10:30;29.10;50.00
13976;DHT22;7062;49.792;9.946;2023-03-03T12:13:08;29.30;49.50
13976;DHT22;7062;49.792;9.946;2023-03-03T12:28:54;27.20;49.60
13976;DHT22;7062;49.792;9.946;2023-03-03T12:31:33;28.50;49.20
13976;DHT22;7062;49.792;9.946;2023-03-03T12:37:01;26.60;49.80
13976;DHT22;7062;49.792;9.946;2023-03-03T12:39:34;27.20;49.20
13976;DHT22;7062;49.792;9.946;2023-03-03T12:45:28;28.60;48.30
13976;DHT22;7062;49.792;9.946;2023-03-03T12:48:08;28.80;47.30
13976;DHT22;7062;49.792;9.946;2023-03-03T12:56:12;27.50;49.00
13976;DHT22;7062;49.792;9.946;2023-03-03T13:04:30;29.90;46.60
13976;DHT22;7062;49.792;9.946;2023-03-03T13:07:17;30.20;45.90
13976;DHT22;7062;49.792;9.946;2023-03-03T13:10:02;30.10;46.60
13976;DHT22;7062;49.792;9.946;2023-03-03T13:12:37;29.70;46.30
13976;DHT22;7062;49.792;9.946;2023-03-03T13:18:04;29.20;46.90
13976;DHT22;7062;49.792;9.946;2023-03-03T13:23:42;31.00;45.30
13976;DHT22;7062;49.792;9.946;2023-03-03T13:29:40;29.50;45.70
13976;DHT22;7062;49.792;9.946;2023-03-03T13:32:14;28.80;46.00
13976;DHT22;7062;49.792;9.946;2023-03-03T13:42:21;30.30;46.20
13976;DHT22;7062;49.792;9.946;2023-03-03T13:44:49;29.40;46.00
13976;DHT22;7062;49.792;9.946;2023-03-03T13:50:17;30.30;45.20
13976;DHT22;7062;49.792;9.946;2023-03-03T13:56:02;30.90;44.60
13976;DHT22;7062;49.792;9.946;2023-03-03T14:01:33;30.00;45.00
13976;DHT22;7062;49.792;9.946;2023-03-03T14:07:06;30.10;44.80
13976;DHT22;7062;49.792;9.946;2023-03-03T14:12:41;30.20;44.50
13976;DHT22;7062;49.792;9.946;2023-03-03T14:15:27;30.20;43.90
13976;DHT22;7062;49.792;9.946;2023-03-03T14:20:48;30.40;43.40
13976;DHT22;7062;49.792;9.946;2023-03-03T14:26:09;30.00;43.00
13976;DHT22;7062;49.792;9.946;2023-03-03T14:28:44;29.90;43.80
13976;DHT22;7062;49.792;9.946;2023-03-03T14:34:29;27.80;43.90
13976;DHT22;7062;49.792;9.946;2023-03-03T14:36:38;27.80;45.30
13976;DHT22;7062;49.792;9.946;2023-03-03T14:41:49;28.20;43.90
13976;DHT22;7062;49.792;9.946;2023-03-03T14:44:29;28.50;43.60
13976;DHT22;7062;49.792;9.946;2023-03-03T14:49:32;27.80;44.20
13976;DHT22;7062;49.792;9.946;2023-03-03T14:52:24;26.90;44.80
13976;DHT22;7062;49.792;9.946;2023-03-03T14:54:50;26.10;45.40
13976;DHT22;7062;49.792;9.946;2023-03-03T15:00:01;25.70;46.30
13976;DHT22;7062;49.792;9.946;2023-03-03T15:05:28;25.70;46.00
13976;DHT22;7062;49.792;9.946;2023-03-03T15:07:57;25.70;46.30
13976;DHT22;7062;49.792;9.946;2023-03-03T15:16:25;26.30;45.90
13976;DHT22;7062;49.792;9.946;2023-03-03T15:21:58;25.90;46.50
13976;DHT22;7062;49.792;9.946;2023-03-03T15:24:37;24.40;47.50
13976;DHT22;7062;49.792;9.946;2023-03-03T15:27:11;24.70;47.40
13976;DHT22;7062;49.792;9.946;2023-03-03T15:32:36;24.20;48.40
13976;DHT22;7062;49.792;9.946;2023-03-03T15:35:27;24.40;48.80
13976;DHT22;7062;49.792;9.946;2023-03-03T15:38:24;24.50;48.60
13976;DHT22;7062;49.792;9.946;2023-03-03T15:43:53;24.30;48.70
13976;DHT22;7062;49.792;9.946;2023-03-03T15:52:38;20.80;53.40
13976;DHT22;7062;49.792;9.946;2023-03-03T16:00:41;18.20;57.80
13976;DHT22;7062;49.792;9.946;2023-03-03T16:03:18;17.50;59.10
13976;DHT22;7062;49.792;9.946;2023-03-03T16:06:10;17.20;60.20
13976;DHT22;7062;49.792;9.946;2023-03-03T16:11:32;16.30;62.00
13976;DHT22;7062;49.792;9.946;2023-03-03T16:20:37;15.80;63.10
13976;DHT22;7062;49.792;9.946;2023-03-03T16:23:38;15.70;63.20
13976;DHT22;7062;49.792;9.946;2023-03-03T16:31:48;15.10;64.80
13976;DHT22;7062;49.792;9.946;2023-03-03T16:37:17;14.80;65.50
13976;DHT22;7062;49.792;9.946;2023-03-03T16:42:44;14.70;65.70
13976;DHT22;7062;49.792;9.946;2023-03-03T16:45:17;14.60;65.90
13976;DHT22;7062;49.792;9.946;2023-03-03T16:50:41;14.60;66.20
13976;DHT22;7062;49.792;9.946;2023-03-03T16:59:19;14.20;67.00
13976;DHT22;7062;49.792;9.946;2023-03-03T17:05:11;14.00;67.30
13976;DHT22;7062;49.792;9.946;2023-03-03T17:13:40;13.60;68.30
13976;DHT22;7062;49.792;9.946;2023-03-03T17:15:47;13.40;69.30
13976;DHT22;7062;49.792;9.946;2023-03-03T17:21:02;13.10;70.10
13976;DHT22;7062;49.792;9.946;2023-03-03T17:31:36;11.30;74.80
13976;DHT22;7062;49.792;9.946;2023-03-03T17:34:21;11.20;75.20
13976;DHT22;7062;49.792;9.946;2023-03-03T17:39:47;10.90;76.50
13976;DHT22;7062;49.792;9.946;2023-03-03T17:42:23;10.80;77.10
13976;DHT22;7062;49.792;9.946;2023-03-03T17:45:14;10.70;77.60
13976;DHT22;7062;49.792;9.946;2023-03-03T17:53:27;10.60;78.80
13976;DHT22;7062;49.792;9.946;2023-03-03T17:56:00;10.60;79.00
13976;DHT22;7062;49.792;9.946;2023-03-03T18:13:16;10.80;79.10
13976;DHT22;7062;49.792;9.946;2023-03-03T18:16:06;10.80;78.50
13976;DHT22;7062;49.792;9.946;2023-03-03T18:19:35;10.60;78.60
13976;DHT22;7062;49.792;9.946;2023-03-03T18:24:32;10.10;79.70
13976;DHT22;7062;49.792;9.946;2023-03-03T18:35:44;9.60;80.90
13976;DHT22;7062;49.792;9.946;2023-03-03T18:41:01;9.50;81.70
13976;DHT22;7062;49.792;9.946;2023-03-03T18:49:04;9.70;81.00
13976;DHT22;7062;49.792;9.946;2023-03-03T18:57:03;9.40;81.80
13976;DHT22;7062;49.792;9.946;2023-03-03T19:05:04;8.80;84.60
13976;DHT22;7062;49.792;9.946;2023-03-03T19:12:56;9.10;83.80
13976;DHT22;7062;49.792;9.946;2023-03-03T19:18:33;8.70;84.70
13976;DHT22;7062;49.792;9.946;2023-03-03T19:21:03;8.40;85.80
13976;DHT22;7062;49.792;9.946;2023-03-03T19:40:53;8.40;87.50
13976;DHT22;7062;49.792;9.946;2023-03-03T19:43:46;8.20;87.90
13976;DHT22;7062;49.792;9.946;2023-03-03T19:46:32;8.30;87.90
13976;DHT22;7062;49.792;9.946;2023-03-03T20:18:47;7.90;90.50
13976;DHT22;7062;49.792;9.946;2023-03-03T20:24:03;8.00;90.40
13976;DHT22;7062;49.792;9.946;2023-03-03T20:32:29;7.50;91.40
13976;DHT22;7062;49.792;9.946;2023-03-03T20:56:54;7.30;92.70
13976;DHT22;7062;49.792;9.946;2023-03-03T21:02:05;7.20;92.90
13976;DHT22;7062;49.792;9.946;2023-03-03T21:04:34;7.30;92.90
13976;DHT22;7062;49.792;9.946;2023-03-03T21:07:01;7.20;93.00
13976;DHT22;7062;49.792;9.946;2023-03-03T21:09:35;7.20;93.00
13976;DHT22;7062;49.792;9.946;2023-03-03T21:12:10;7.00;93.10
13976;DHT22;7062;49.792;9.946;2023-03-03T21:14:36;6.90;93.60
13976;DHT22;7062;49.792;9.946;2023-03-03T21:17:25;6.60;93.90
13976;DHT22;7062;49.792;9.946;2023-03-03T21:19:51;6.70;94.10
13976;DHT22;7062;49.792;9.946;2023-03-03T21:22:16;6.80;93.90
13976;DHT22;7062;49.792;9.946;2023-03-03T21:24:53;6.50;94.40
13976;DHT22;7062;49.792;9.946;2023-03-03T21:30:21;6.40;95.00
13976;DHT22;7062;49.792;9.946;2023-03-03T21:32:48;6.40;95.30
13976;DHT22;7062;49.792;9.946;2023-03-03T21:35:17;6.50;95.20
13976;DHT22;7062;49.792;9.946;2023-03-03T21:37:49;6.40;95.50
13976;DHT22;7062;49.792;9.946;2023-03-03T21:42:47;6.40;95.90
13976;DHT22;7062;49.792;9.946;2023-03-03T21:45:14;6.50;95.60
13976;DHT22;7062;49.792;9.946;2023-03-03T21:47:41;6.60;95.50
13976;DHT22;7062;49.792;9.946;2023-03-03T21:50:07;6.60;95.40
13976;DHT22;7062;49.792;9.946;2023-03-03T21:52:33;6.50;95.50
13976;DHT22;7062;49.792;9.946;2023-03-03T21:54:59;6.50;95.60
13976;DHT22;7062;49.792;9.946;2023-03-03T21:57:25;6.40;95.60
13976;DHT22;7062;49.792;9.946;2023-03-03T21:59:51;6.30;95.80
13976;DHT22;7062;49.792;9.946;2023-03-03T22:02:17;6.30;96.00
13976;DHT22;7062;49.792;9.946;2023-03-03T22:04:43;6.20;96.20
13976;DHT22;7062;49.792;9.946;2023-03-03T22:07:09;6.20;96.20
13976;DHT22;7062;49.792;9.946;2023-03-03T22:09:36;6.20;96.40
13976;DHT22;7062;49.792;9.946;2023-03-03T22:12:02;6.30;96.20
13976;DHT22;7062;49.792;9.946;2023-03-03T22:14:28;6.30;96.10
13976;DHT22;7062;49.792;9.946;2023-03-03T22:16:54;6.30;96.10
13976;DHT22;7062;49.792;9.946;2023-03-03T22:19:20;6.30;96.00
13976;DHT22;7062;49.792;9.946;2023-03-03T22:21:45;6.20;96.00
13976;DHT22;7062;49.792;9.946;2023-03-03T22:24:12;6.30;96.20
13976;DHT22;7062;49.792;9.946;2023-03-03T22:26:37;6.10;96.20
13976;DHT22;7062;49.792;9.946;2023-03-03T22:29:04;6.10;96.20
13976;DHT22;7062;49.792;9.946;2023-03-03T22:31:29;6.10;96.30
13976;DHT22;7062;49.792;9.946;2023-03-03T22:33:55;6.10;96.30
13976;DHT22;7062;49.792;9.946;2023-03-03T22:36:21;6.00;96.50
13976;DHT22;7062;49.792;9.946;2023-03-03T22:38:46;5.80;97.00
13976;DHT22;7062;49.792;9.946;2023-03-03T22:41:12;5.70;97.20
13976;DHT22;7062;49.792;9.946;2023-03-03T22:43:38;5.60;97.60
13976;DHT22;7062;49.792;9.946;2023-03-03T22:46:04;5.50;97.80
13976;DHT22;7062;49.792;9.946;2023-03-03T22:48:30;5.60;98.00
13976;DHT22;7062;49.792;9.946;2023-03-03T22:50:56;5.50;98.20
13976;DHT22;7062;49.792;9.946;2023-03-03T22:53:23;5.50;98.50
13976;DHT22;7062;49.792;9.946;2023-03-03T22:55:49;5.50;98.70
13976;DHT22;7062;49.792;9.946;2023-03-03T22:58:15;5.40;99.00
13976;DHT22;7062;49.792;9.946;2023-03-03T23:00:45;5.30;99.60
13976;DHT22;7062;49.792;9.946;2023-03-03T23:03:11;4.90;99.90
13976;DHT22;7062;49.792;9.946;2023-03-03T23:05:37;4.60;99.90
13976;DHT22;7062;49.792;9.946;2023-03-03T23:08:05;4.40;99.90
13976;DHT22;7062;49.792;9.946;2023-03-03T23:10:31;4.30;99.90
13976;DHT22;7062;49.792;9.946;2023-03-03T23:12:57;4.20;99.90
13976;DHT22;7062;49.792;9.946;2023-03-03T23:15:23;4.10;99.90
13976;DHT22;7062;49.792;9.946;2023-03-03T23:17:49;4.10;99.90
13976;DHT22;7062;49.792;9.946;2023-03-03T23:20:19;4.20;99.90
13976;DHT22;7062;49.792;9.946;2023-03-03T23:22:44;4.20;99.90
13976;DHT22;7062;49.792;9.946;2023-03-03T23:25:10;4.00;99.90
13976;DHT22;7062;49.792;9.946;2023-03-03T23:27:36;3.90;99.90
13976;DHT22;7062;49.792;9.946;2023-03-03T23:30:03;4.00;99.90